sensor_id;sensor_type;location;lat;lon;timestamp;pressure;altitude;pressure_sealevel;temperature;humidity
56681;BME280;42558;52.388;13.390;2023-01-05T00:00:10;100270.55;;;8.57;100.00
56681;BME280;42558;52.388;13.390;2023-01-05T00:02:40;100269.77;;;8.63;100.00
56681;BME280;42558;52.388;13.390;2023-01-05T00:05:10;100268.61;;;8.56;100.00
56681;BME280;42558;52.388;13.390;2023-01-05T00:07:40;100264.89;;;8.53;100.00
56681;BME280;42558;52.388;13.390;2023-01-05T00:10:10;100266.85;;;8.43;100.00
56681;BME280;42558;52.388;13.390;2023-01-05T00:12:59;100262.50;;;8.46;100.00
56681;BME280;42558;52.388;13.390;2023-01-05T00:15:48;100269.90;;;8.48;100.00
56681;BME280;42558;52.388;13.390;2023-01-05T00:18:35;100273.52;;;8.44;100.00
56681;BME280;42558;52.388;13.390;2023-01-05T00:21:24;100270.93;;;8.46;100.00
56681;BME280;42558;52.388;13.390;2023-01-05T00:24:12;100273.81;;;8.30;100.00
56681;BME280;42558;52.388;13.390;2023-01-05T00:26:42;100268.13;;;8.25;100.00
56681;BME280;42558;52.388;13.390;2023-01-05T00:29:12;100270.88;;;8.20;100.00
56681;BME280;42558;52.388;13.390;2023-01-05T00:31:42;100269.81;;;8.19;100.00
56681;BME280;42558;52.388;13.390;2023-01-05T00:34:12;100271.89;;;8.08;100.00
56681;BME280;42558;52.388;13.390;2023-01-05T00:36:41;100273.77;;;8.15;100.00
56681;BME280;42558;52.388;13.390;2023-01-05T00:39:11;100276.36;;;8.13;100.00
56681;BME280;42558;52.388;13.390;2023-01-05T00:41:41;100277.81;;;8.05;100.00
56681;BME280;42558;52.388;13.390;2023-01-05T00:44:11;100272.89;;;8.04;100.00
56681;BME280;42558;52.388;13.390;2023-01-05T00:46:40;100270.64;;;8.06;100.00
56681;BME280;42558;52.388;13.390;2023-01-05T00:49:10;100270.08;;;8.15;100.00
56681;BME280;42558;52.388;13.390;2023-01-05T00:51:40;100275.94;;;8.40;100.00
56681;BME280;42558;52.388;13.390;2023-01-05T00:54:10;100273.16;;;8.55;100.00
56681;BME280;42558;52.388;13.390;2023-01-05T00:56:39;100270.31;;;8.53;100.00
56681;BME280;42558;52.388;13.390;2023-01-05T00:59:09;100272.15;;;8.46;100.00
56681;BME280;42558;52.388;13.390;2023-01-05T01:01:39;100279.30;;;8.55;100.00
56681;BME280;42558;52.388;13.390;2023-01-05T01:04:09;100275.34;;;8.62;100.00
56681;BME280;42558;52.388;13.390;2023-01-05T01:06:39;100268.54;;;8.64;100.00
56681;BME280;42558;52.388;13.390;2023-01-05T01:09:09;100272.64;;;8.56;100.00
56681;BME280;42558;52.388;13.390;2023-01-05T01:11:39;100269.16;;;8.45;100.00
56681;BME280;42558;52.388;13.390;2023-01-05T01:14:10;100266.85;;;8.55;100.00
56681;BME280;42558;52.388;13.390;2023-01-05T01:16:41;100264.65;;;8.62;100.00
56681;BME280;42558;52.388;13.390;2023-01-05T01:19:15;100270.55;;;8.56;100.00
56681;BME280;42558;52.388;13.390;2023-01-05T01:21:46;100263.60;;;8.49;100.00
56681;BME280;42558;52.388;13.390;2023-01-05T01:24:26;100264.52;;;8.52;100.00
56681;BME280;42558;52.388;13.390;2023-01-05T01:26:56;100268.38;;;8.52;100.00
56681;BME280;42558;52.388;13.390;2023-01-05T01:29:26;100273.23;;;8.48;100.00
56681;BME280;42558;52.388;13.390;2023-01-05T01:31:55;100274.89;;;8.54;100.00
56681;BME280;42558;52.388;13.390;2023-01-05T01:34:23;100273.47;;;8.52;100.00
56681;BME280;42558;52.388;13.390;2023-01-05T01:36:55;100273.55;;;8.45;100.00
56681;BME280;42558;52.388;13.390;2023-01-05T01:39:23;100275.73;;;8.50;100.00
56681;BME280;42558;52.388;13.390;2023-01-05T01:41:51;100277.91;;;8.44;100.00
56681;BME280;42558;52.388;13.390;2023-01-05T01:45:00;100270.70;;;8.43;100.00
56681;BME280;42558;52.388;13.390;2023-01-05T01:50:32;100270.75;;;8.57;100.00
56681;BME280;42558;52.388;13.390;2023-01-05T01:53:29;100266.77;;;8.62;100.00
56681;BME280;42558;52.388;13.390;2023-01-05T01:56:04;100270.32;;;8.65;100.00
56681;BME280;42558;52.388;13.390;2023-01-05T01:58:37;100265.39;;;8.64;100.00
56681;BME280;42558;52.388;13.390;2023-01-05T02:01:07;100263.45;;;8.63;100.00
56681;BME280;42558;52.388;13.390;2023-01-05T02:03:38;100262.82;;;8.68;100.00
56681;BME280;42558;52.388;13.390;2023-01-05T02:06:09;100258.08;;;8.68;100.00
56681;BME280;42558;52.388;13.390;2023-01-05T02:08:40;100261.59;;;8.68;100.00
56681;BME280;42558;52.388;13.390;2023-01-05T02:14:59;100256.04;;;8.87;100.00
56681;BME280;42558;52.388;13.390;2023-01-05T02:17:57;100255.68;;;8.85;100.00
56681;BME280;42558;52.388;13.390;2023-01-05T02:20:43;100254.81;;;8.86;100.00
56681;BME280;42558;52.388;13.390;2023-01-05T02:27:02;100250.60;;;8.71;100.00
56681;BME280;42558;52.388;13.390;2023-01-05T02:32:52;100251.61;;;8.56;100.00
56681;BME280;42558;52.388;13.390;2023-01-05T02:41:39;100238.11;;;8.68;100.00
56681;BME280;42558;52.388;13.390;2023-01-05T02:44:16;100241.59;;;8.67;100.00
56681;BME280;42558;52.388;13.390;2023-01-05T02:47:31;100244.45;;;8.70;100.00
56681;BME280;42558;52.388;13.390;2023-01-05T02:50:18;100242.02;;;8.73;100.00
56681;BME280;42558;52.388;13.390;2023-01-05T02:56:48;100244.88;;;8.64;100.00
56681;BME280;42558;52.388;13.390;2023-01-05T02:59:32;100245.62;;;8.66;100.00
56681;BME280;42558;52.388;13.390;2023-01-05T03:02:15;100247.55;;;8.66;100.00
56681;BME280;42558;52.388;13.390;2023-01-05T03:04:54;100248.39;;;8.64;100.00
56681;BME280;42558;52.388;13.390;2023-01-05T03:07:31;100246.30;;;8.52;100.00
56681;BME280;42558;52.388;13.390;2023-01-05T03:10:02;100250.00;;;8.53;100.00
56681;BME280;42558;52.388;13.390;2023-01-05T03:12:56;100259.81;;;8.53;100.00
56681;BME280;42558;52.388;13.390;2023-01-05T03:15:48;100267.34;;;8.53;100.00
56681;BME280;42558;52.388;13.390;2023-01-05T03:18:21;100264.01;;;8.53;100.00
56681;BME280;42558;52.388;13.390;2023-01-05T03:20:53;100261.04;;;8.41;100.00
56681;BME280;42558;52.388;13.390;2023-01-05T03:23:24;100262.16;;;8.45;100.00
56681;BME280;42558;52.388;13.390;2023-01-05T03:26:12;100263.48;;;8.53;100.00
56681;BME280;42558;52.388;13.390;2023-01-05T03:29:02;100260.95;;;8.72;100.00
56681;BME280;42558;52.388;13.390;2023-01-05T03:32:01;100254.55;;;8.66;100.00
56681;BME280;42558;52.388;13.390;2023-01-05T03:35:04;100255.38;;;8.76;100.00
56681;BME280;42558;52.388;13.390;2023-01-05T03:38:34;100251.29;;;8.70;100.00
56681;BME280;42558;52.388;13.390;2023-01-05T03:41:07;100250.46;;;8.75;100.00
56681;BME280;42558;52.388;13.390;2023-01-05T03:43:41;100255.23;;;8.77;100.00
56681;BME280;42558;52.388;13.390;2023-01-05T03:46:16;100257.63;;;8.72;100.00
56681;BME280;42558;52.388;13.390;2023-01-05T03:48:47;100259.83;;;8.81;100.00
56681;BME280;42558;52.388;13.390;2023-01-05T03:51:18;100255.70;;;8.88;100.00
56681;BME280;42558;52.388;13.390;2023-01-05T03:53:47;100253.37;;;8.83;100.00
56681;BME280;42558;52.388;13.390;2023-01-05T03:56:17;100262.15;;;8.84;100.00
56681;BME280;42558;52.388;13.390;2023-01-05T03:58:47;100258.26;;;8.81;100.00
56681;BME280;42558;52.388;13.390;2023-01-05T04:01:17;100270.21;;;8.71;100.00
56681;BME280;42558;52.388;13.390;2023-01-05T04:03:47;100264.81;;;8.74;100.00
56681;BME280;42558;52.388;13.390;2023-01-05T04:06:16;100264.11;;;8.74;100.00
56681;BME280;42558;52.388;13.390;2023-01-05T04:08:46;100258.43;;;8.67;100.00
56681;BME280;42558;52.388;13.390;2023-01-05T04:11:19;100261.86;;;8.75;100.00
56681;BME280;42558;52.388;13.390;2023-01-05T04:13:49;100270.02;;;8.84;100.00
56681;BME280;42558;52.388;13.390;2023-01-05T04:16:19;100266.54;;;8.85;100.00
56681;BME280;42558;52.388;13.390;2023-01-05T04:18:47;100272.92;;;8.90;100.00
56681;BME280;42558;52.388;13.390;2023-01-05T04:21:16;100277.47;;;8.91;100.00
56681;BME280;42558;52.388;13.390;2023-01-05T04:23:44;100277.41;;;8.85;100.00
56681;BME280;42558;52.388;13.390;2023-01-05T04:26:13;100277.16;;;8.80;100.00
56681;BME280;42558;52.388;13.390;2023-01-05T04:28:41;100279.55;;;8.74;100.00
56681;BME280;42558;52.388;13.390;2023-01-05T04:31:09;100281.36;;;8.65;100.00
56681;BME280;42558;52.388;13.390;2023-01-05T04:33:38;100288.46;;;8.72;100.00
56681;BME280;42558;52.388;13.390;2023-01-05T04:36:07;100287.27;;;8.74;100.00
56681;BME280;42558;52.388;13.390;2023-01-05T04:38:35;100289.63;;;8.81;100.00
56681;BME280;42558;52.388;13.390;2023-01-05T04:41:03;100302.86;;;8.74;100.00
56681;BME280;42558;52.388;13.390;2023-01-05T04:43:31;100300.44;;;8.64;100.00
56681;BME280;42558;52.388;13.390;2023-01-05T04:46:00;100305.67;;;8.50;100.00
56681;BME280;42558;52.388;13.390;2023-01-05T04:48:28;100297.38;;;8.35;100.00
56681;BME280;42558;52.388;13.390;2023-01-05T04:51:00;100300.50;;;8.23;100.00
56681;BME280;42558;52.388;13.390;2023-01-05T04:53:28;100306.67;;;8.15;100.00
56681;BME280;42558;52.388;13.390;2023-01-05T04:55:57;100303.95;;;8.09;100.00
56681;BME280;42558;52.388;13.390;2023-01-05T04:58:25;100307.05;;;8.06;100.00
56681;BME280;42558;52.388;13.390;2023-01-05T05:00:53;100308.96;;;8.05;100.00
56681;BME280;42558;52.388;13.390;2023-01-05T05:03:22;100311.05;;;8.03;100.00
56681;BME280;42558;52.388;13.390;2023-01-05T05:05:56;100316.81;;;8.03;100.00
56681;BME280;42558;52.388;13.390;2023-01-05T05:08:26;100317.20;;;8.05;100.00
56681;BME280;42558;52.388;13.390;2023-01-05T05:10:56;100320.52;;;8.04;100.00
56681;BME280;42558;52.388;13.390;2023-01-05T05:13:26;100317.80;;;7.99;100.00
56681;BME280;42558;52.388;13.390;2023-01-05T05:15:56;100317.41;;;7.97;100.00
56681;BME280;42558;52.388;13.390;2023-01-05T05:18:26;100313.86;;;7.95;100.00
56681;BME280;42558;52.388;13.390;2023-01-05T05:20:56;100316.66;;;7.94;100.00
56681;BME280;42558;52.388;13.390;2023-01-05T05:23:26;100319.02;;;8.10;100.00
56681;BME280;42558;52.388;13.390;2023-01-05T05:25:56;100316.88;;;8.17;100.00
56681;BME280;42558;52.388;13.390;2023-01-05T05:28:26;100318.37;;;8.23;100.00
56681;BME280;42558;52.388;13.390;2023-01-05T05:30:56;100320.86;;;8.25;100.00
56681;BME280;42558;52.388;13.390;2023-01-05T05:33:25;100325.42;;;8.26;100.00
56681;BME280;42558;52.388;13.390;2023-01-05T05:35:55;100325.33;;;8.31;100.00
56681;BME280;42558;52.388;13.390;2023-01-05T05:38:25;100319.17;;;8.40;100.00
56681;BME280;42558;52.388;13.390;2023-01-05T05:40:55;100322.03;;;8.43;100.00
56681;BME280;42558;52.388;13.390;2023-01-05T05:43:25;100328.02;;;8.46;100.00
56681;BME280;42558;52.388;13.390;2023-01-05T05:45:54;100325.42;;;8.36;100.00
56681;BME280;42558;52.388;13.390;2023-01-05T05:48:24;100326.03;;;8.41;100.00
56681;BME280;42558;52.388;13.390;2023-01-05T05:50:54;100336.41;;;8.44;100.00
56681;BME280;42558;52.388;13.390;2023-01-05T05:53:24;100331.73;;;8.48;100.00
56681;BME280;42558;52.388;13.390;2023-01-05T05:55:54;100324.63;;;8.53;100.00
56681;BME280;42558;52.388;13.390;2023-01-05T05:58:24;100325.02;;;8.43;100.00
56681;BME280;42558;52.388;13.390;2023-01-05T06:00:57;100330.94;;;8.41;100.00
56681;BME280;42558;52.388;13.390;2023-01-05T06:03:27;100337.43;;;8.42;100.00
56681;BME280;42558;52.388;13.390;2023-01-05T06:05:57;100337.63;;;8.43;100.00
56681;BME280;42558;52.388;13.390;2023-01-05T06:08:28;100336.96;;;8.46;100.00
56681;BME280;42558;52.388;13.390;2023-01-05T06:10:57;100342.33;;;8.41;100.00
56681;BME280;42558;52.388;13.390;2023-01-05T06:13:27;100340.36;;;8.38;100.00
56681;BME280;42558;52.388;13.390;2023-01-05T06:15:57;100348.52;;;8.45;100.00
56681;BME280;42558;52.388;13.390;2023-01-05T06:18:27;100351.23;;;8.51;100.00
56681;BME280;42558;52.388;13.390;2023-01-05T06:20:56;100361.67;;;8.46;100.00
56681;BME280;42558;52.388;13.390;2023-01-05T06:23:30;100373.03;;;8.34;100.00
56681;BME280;42558;52.388;13.390;2023-01-05T06:25:57;100385.13;;;8.26;100.00
56681;BME280;42558;52.388;13.390;2023-01-05T06:28:27;100380.23;;;8.16;100.00
56681;BME280;42558;52.388;13.390;2023-01-05T06:30:57;100379.92;;;8.08;100.00
56681;BME280;42558;52.388;13.390;2023-01-05T06:33:27;100386.79;;;8.10;100.00
56681;BME280;42558;52.388;13.390;2023-01-05T06:35:57;100392.23;;;8.11;100.00
56681;BME280;42558;52.388;13.390;2023-01-05T06:38:28;100384.57;;;8.13;100.00
56681;BME280;42558;52.388;13.390;2023-01-05T06:40:56;100394.58;;;8.05;100.00
56681;BME280;42558;52.388;13.390;2023-01-05T06:43:25;100398.02;;;8.02;100.00
56681;BME280;42558;52.388;13.390;2023-01-05T06:45:53;100401.58;;;7.96;100.00
56681;BME280;42558;52.388;13.390;2023-01-05T06:48:22;100404.83;;;7.91;100.00
56681;BME280;42558;52.388;13.390;2023-01-05T06:50:50;100405.45;;;7.87;100.00
56681;BME280;42558;52.388;13.390;2023-01-05T06:53:19;100406.39;;;7.81;100.00
56681;BME280;42558;52.388;13.390;2023-01-05T06:55:47;100410.32;;;7.76;100.00
56681;BME280;42558;52.388;13.390;2023-01-05T06:58:15;100416.54;;;7.72;100.00
56681;BME280;42558;52.388;13.390;2023-01-05T07:00:44;100419.02;;;7.75;100.00
56681;BME280;42558;52.388;13.390;2023-01-05T07:03:13;100421.52;;;7.76;100.00
56681;BME280;42558;52.388;13.390;2023-01-05T07:05:41;100426.37;;;7.74;100.00
56681;BME280;42558;52.388;13.390;2023-01-05T07:08:09;100421.36;;;7.77;100.00
56681;BME280;42558;52.388;13.390;2023-01-05T07:10:37;100428.02;;;7.78;100.00
56681;BME280;42558;52.388;13.390;2023-01-05T07:13:06;100431.73;;;7.79;100.00
56681;BME280;42558;52.388;13.390;2023-01-05T07:15:34;100442.88;;;7.77;100.00
56681;BME280;42558;52.388;13.390;2023-01-05T07:18:03;100440.22;;;7.75;100.00
56681;BME280;42558;52.388;13.390;2023-01-05T07:20:31;100434.61;;;7.75;100.00
56681;BME280;42558;52.388;13.390;2023-01-05T07:23:00;100439.67;;;7.74;100.00
56681;BME280;42558;52.388;13.390;2023-01-05T07:25:28;100443.00;;;7.75;100.00
56681;BME280;42558;52.388;13.390;2023-01-05T07:28:00;100451.69;;;7.80;100.00
56681;BME280;42558;52.388;13.390;2023-01-05T07:30:29;100444.89;;;7.81;100.00
56681;BME280;42558;52.388;13.390;2023-01-05T07:32:59;100454.05;;;7.84;100.00
56681;BME280;42558;52.388;13.390;2023-01-05T07:35:29;100468.42;;;7.85;100.00
56681;BME280;42558;52.388;13.390;2023-01-05T07:37:59;100469.25;;;7.92;100.00
56681;BME280;42558;52.388;13.390;2023-01-05T07:40:29;100466.08;;;7.90;100.00
56681;BME280;42558;52.388;13.390;2023-01-05T07:42:59;100469.57;;;7.89;100.00
56681;BME280;42558;52.388;13.390;2023-01-05T07:45:29;100472.23;;;7.83;100.00
56681;BME280;42558;52.388;13.390;2023-01-05T07:48:00;100473.84;;;7.76;100.00
56681;BME280;42558;52.388;13.390;2023-01-05T07:50:29;100481.81;;;7.72;100.00
56681;BME280;42558;52.388;13.390;2023-01-05T07:53:00;100482.45;;;7.78;100.00
56681;BME280;42558;52.388;13.390;2023-01-05T07:55:28;100485.40;;;7.77;100.00
56681;BME280;42558;52.388;13.390;2023-01-05T07:57:57;100489.61;;;7.77;100.00
56681;BME280;42558;52.388;13.390;2023-01-05T08:00:25;100493.30;;;7.69;100.00
56681;BME280;42558;52.388;13.390;2023-01-05T08:02:53;100498.09;;;7.73;100.00
56681;BME280;42558;52.388;13.390;2023-01-05T08:05:22;100497.21;;;7.64;100.00
56681;BME280;42558;52.388;13.390;2023-01-05T08:07:50;100500.20;;;7.65;100.00
56681;BME280;42558;52.388;13.390;2023-01-05T08:10:19;100505.55;;;7.69;100.00
56681;BME280;42558;52.388;13.390;2023-01-05T08:13:04;100514.63;;;7.69;100.00
56681;BME280;42558;52.388;13.390;2023-01-05T08:15:53;100512.50;;;7.75;100.00
56681;BME280;42558;52.388;13.390;2023-01-05T08:18:23;100527.17;;;7.74;100.00
56681;BME280;42558;52.388;13.390;2023-01-05T08:20:57;100527.66;;;7.72;100.00
56681;BME280;42558;52.388;13.390;2023-01-05T08:23:26;100530.30;;;7.73;100.00
56681;BME280;42558;52.388;13.390;2023-01-05T08:25:57;100531.42;;;7.76;100.00
56681;BME280;42558;52.388;13.390;2023-01-05T08:28:29;100535.39;;;7.74;100.00
56681;BME280;42558;52.388;13.390;2023-01-05T08:31:09;100553.59;;;7.81;100.00
56681;BME280;42558;52.388;13.390;2023-01-05T08:33:37;100553.35;;;7.87;100.00
56681;BME280;42558;52.388;13.390;2023-01-05T08:36:14;100555.76;;;7.85;100.00
56681;BME280;42558;52.388;13.390;2023-01-05T08:38:51;100561.90;;;7.86;100.00
56681;BME280;42558;52.388;13.390;2023-01-05T08:41:28;100555.95;;;7.86;100.00
56681;BME280;42558;52.388;13.390;2023-01-05T08:44:02;100568.29;;;7.90;100.00
56681;BME280;42558;52.388;13.390;2023-01-05T08:46:34;100567.51;;;7.95;100.00
56681;BME280;42558;52.388;13.390;2023-01-05T08:49:07;100566.39;;;7.91;100.00
56681;BME280;42558;52.388;13.390;2023-01-05T08:51:38;100574.98;;;7.92;100.00
56681;BME280;42558;52.388;13.390;2023-01-05T08:54:08;100574.65;;;7.93;100.00
56681;BME280;42558;52.388;13.390;2023-01-05T08:56:38;100581.34;;;7.86;100.00
56681;BME280;42558;52.388;13.390;2023-01-05T08:59:11;100580.13;;;7.87;100.00
56681;BME280;42558;52.388;13.390;2023-01-05T09:01:42;100590.61;;;7.86;100.00
56681;BME280;42558;52.388;13.390;2023-01-05T09:04:12;100591.25;;;7.83;100.00
56681;BME280;42558;52.388;13.390;2023-01-05T09:06:42;100591.14;;;7.87;100.00
56681;BME280;42558;52.388;13.390;2023-01-05T09:09:12;100597.27;;;7.86;100.00
56681;BME280;42558;52.388;13.390;2023-01-05T09:11:41;100596.38;;;7.86;100.00
56681;BME280;42558;52.388;13.390;2023-01-05T09:14:12;100598.70;;;7.88;100.00
56681;BME280;42558;52.388;13.390;2023-01-05T09:16:43;100612.33;;;8.04;100.00
56681;BME280;42558;52.388;13.390;2023-01-05T09:19:33;100613.55;;;7.94;100.00
56681;BME280;42558;52.388;13.390;2023-01-05T09:22:01;100617.02;;;8.10;100.00
56681;BME280;42558;52.388;13.390;2023-01-05T09:24:30;100620.19;;;8.61;98.08
56681;BME280;42558;52.388;13.390;2023-01-05T09:26:58;100618.81;;;8.62;96.13
56681;BME280;42558;52.388;13.390;2023-01-05T09:29:26;100613.48;;;8.58;94.27
56681;BME280;42558;52.388;13.390;2023-01-05T09:31:55;100619.39;;;9.14;89.79
56681;BME280;42558;52.388;13.390;2023-01-05T09:34:23;100630.10;;;8.67;91.40
56681;BME280;42558;52.388;13.390;2023-01-05T09:36:52;100633.58;;;8.31;93.87
56681;BME280;42558;52.388;13.390;2023-01-05T09:39:20;100639.14;;;8.21;93.70
56681;BME280;42558;52.388;13.390;2023-01-05T09:41:56;100641.90;;;8.35;93.24
56681;BME280;42558;52.388;13.390;2023-01-05T09:44:47;100647.27;;;8.57;92.19
56681;BME280;42558;52.388;13.390;2023-01-05T09:47:42;100652.94;;;9.06;88.79
56681;BME280;42558;52.388;13.390;2023-01-05T09:50:26;100654.20;;;8.71;89.83
56681;BME280;42558;52.388;13.390;2023-01-05T09:52:59;100662.09;;;8.80;89.06
56681;BME280;42558;52.388;13.390;2023-01-05T09:55:31;100664.33;;;8.78;89.48
56681;BME280;42558;52.388;13.390;2023-01-05T09:58:14;100675.73;;;8.60;92.06
56681;BME280;42558;52.388;13.390;2023-01-05T10:01:15;100667.67;;;9.27;88.47
56681;BME280;42558;52.388;13.390;2023-01-05T10:04:11;100677.09;;;8.50;92.01
56681;BME280;42558;52.388;13.390;2023-01-05T10:06:54;100673.08;;;8.27;93.20
56681;BME280;42558;52.388;13.390;2023-01-05T10:09:34;100679.86;;;8.17;94.20
56681;BME280;42558;52.388;13.390;2023-01-05T10:12:41;100681.95;;;8.08;94.47
56681;BME280;42558;52.388;13.390;2023-01-05T10:16:04;100686.58;;;8.12;93.08
56681;BME280;42558;52.388;13.390;2023-01-05T10:18:34;100690.73;;;8.18;92.22
56681;BME280;42558;52.388;13.390;2023-01-05T10:27:56;100686.20;;;8.26;88.62
56681;BME280;42558;52.388;13.390;2023-01-05T10:31:00;100685.55;;;8.21;90.17
56681;BME280;42558;52.388;13.390;2023-01-05T10:33:58;100695.10;;;8.25;89.46
56681;BME280;42558;52.388;13.390;2023-01-05T10:36:45;100699.64;;;8.24;91.38
56681;BME280;42558;52.388;13.390;2023-01-05T10:45:13;100706.52;;;8.18;92.61
56681;BME280;42558;52.388;13.390;2023-01-05T10:47:48;100706.96;;;8.16;92.90
56681;BME280;42558;52.388;13.390;2023-01-05T10:50:29;100705.35;;;8.13;91.45
56681;BME280;42558;52.388;13.390;2023-01-05T10:53:15;100710.91;;;8.11;90.80
56681;BME280;42558;52.388;13.390;2023-01-05T10:56:00;100708.77;;;8.09;90.83
56681;BME280;42558;52.388;13.390;2023-01-05T10:58:39;100714.38;;;8.10;89.51
56681;BME280;42558;52.388;13.390;2023-01-05T11:01:25;100718.81;;;8.13;88.21
56681;BME280;42558;52.388;13.390;2023-01-05T11:04:12;100721.68;;;8.15;88.55
56681;BME280;42558;52.388;13.390;2023-01-05T11:07:05;100720.11;;;8.16;87.96
56681;BME280;42558;52.388;13.390;2023-01-05T11:09:40;100734.61;;;8.14;88.70
56681;BME280;42558;52.388;13.390;2023-01-05T11:12:19;100726.88;;;8.13;87.36
56681;BME280;42558;52.388;13.390;2023-01-05T11:14:59;100729.71;;;8.14;87.06
56681;BME280;42558;52.388;13.390;2023-01-05T11:17:31;100725.58;;;8.17;87.06
56681;BME280;42558;52.388;13.390;2023-01-05T11:20:01;100725.34;;;8.15;87.60
56681;BME280;42558;52.388;13.390;2023-01-05T11:22:37;100731.73;;;8.18;86.40
56681;BME280;42558;52.388;13.390;2023-01-05T11:25:31;100734.71;;;8.18;85.83
56681;BME280;42558;52.388;13.390;2023-01-05T11:28:14;100739.83;;;8.20;85.52
56681;BME280;42558;52.388;13.390;2023-01-05T11:30:58;100742.08;;;8.19;86.51
56681;BME280;42558;52.388;13.390;2023-01-05T11:33:32;100741.00;;;8.17;86.21
56681;BME280;42558;52.388;13.390;2023-01-05T11:36:05;100744.36;;;8.20;86.49
56681;BME280;42558;52.388;13.390;2023-01-05T11:38:35;100746.45;;;8.18;86.82
56681;BME280;42558;52.388;13.390;2023-01-05T11:41:09;100751.17;;;8.19;86.75
56681;BME280;42558;52.388;13.390;2023-01-05T11:43:39;100759.78;;;8.20;85.70
56681;BME280;42558;52.388;13.390;2023-01-05T11:46:10;100758.23;;;8.22;85.60
56681;BME280;42558;52.388;13.390;2023-01-05T11:48:54;100768.40;;;8.22;86.37
56681;BME280;42558;52.388;13.390;2023-01-05T11:51:33;100775.83;;;8.24;86.04
56681;BME280;42558;52.388;13.390;2023-01-05T11:54:03;100782.19;;;8.27;85.93
56681;BME280;42558;52.388;13.390;2023-01-05T11:56:31;100790.86;;;8.30;86.38
56681;BME280;42558;52.388;13.390;2023-01-05T11:58:59;100792.77;;;8.30;86.85
56681;BME280;42558;52.388;13.390;2023-01-05T12:07:47;100802.95;;;8.31;86.16
56681;BME280;42558;52.388;13.390;2023-01-05T12:13:48;100820.41;;;8.35;86.09
56681;BME280;42558;52.388;13.390;2023-01-05T12:17:08;100831.73;;;8.33;86.04
56681;BME280;42558;52.388;13.390;2023-01-05T12:20:09;100832.88;;;8.30;86.22
56681;BME280;42558;52.388;13.390;2023-01-05T12:26:10;100841.61;;;8.22;86.91
56681;BME280;42558;52.388;13.390;2023-01-05T12:29:13;100844.97;;;8.23;85.84
56681;BME280;42558;52.388;13.390;2023-01-05T12:38:40;100854.27;;;8.24;86.50
56681;BME280;42558;52.388;13.390;2023-01-05T12:50:00;100875.48;;;8.25;86.23
56681;BME280;42558;52.388;13.390;2023-01-05T12:52:44;100875.67;;;8.25;86.87
56681;BME280;42558;52.388;13.390;2023-01-05T12:55:27;100876.93;;;8.26;85.68
56681;BME280;42558;52.388;13.390;2023-01-05T12:58:11;100883.23;;;8.27;85.10
56681;BME280;42558;52.388;13.390;2023-01-05T13:00:41;100890.37;;;8.24;84.89
56681;BME280;42558;52.388;13.390;2023-01-05T13:03:30;100885.88;;;8.19;85.48
56681;BME280;42558;52.388;13.390;2023-01-05T13:06:19;100891.44;;;8.18;85.44
56681;BME280;42558;52.388;13.390;2023-01-05T13:08:56;100901.23;;;8.17;85.86
56681;BME280;42558;52.388;13.390;2023-01-05T13:11:34;100907.11;;;8.15;86.04
56681;BME280;42558;52.388;13.390;2023-01-05T13:16:49;100917.70;;;8.11;85.53
56681;BME280;42558;52.388;13.390;2023-01-05T13:19:44;100910.69;;;8.11;85.58
56681;BME280;42558;52.388;13.390;2023-01-05T13:22:25;100926.77;;;8.03;85.66
56681;BME280;42558;52.388;13.390;2023-01-05T13:25:02;100929.42;;;7.98;86.59
56681;BME280;42558;52.388;13.390;2023-01-05T13:27:33;100933.33;;;7.93;86.85
56681;BME280;42558;52.388;13.390;2023-01-05T13:30:05;100930.91;;;7.95;86.57
56681;BME280;42558;52.388;13.390;2023-01-05T13:32:44;100938.13;;;7.96;86.37
56681;BME280;42558;52.388;13.390;2023-01-05T13:35:37;100942.38;;;7.97;85.99
56681;BME280;42558;52.388;13.390;2023-01-05T13:41:39;100954.80;;;7.90;87.14
56681;BME280;42558;52.388;13.390;2023-01-05T13:44:52;100959.84;;;7.89;87.72
56681;BME280;42558;52.388;13.390;2023-01-05T13:55:53;100968.25;;;7.89;87.90
56681;BME280;42558;52.388;13.390;2023-01-05T13:58:46;100977.70;;;7.89;87.88
56681;BME280;42558;52.388;13.390;2023-01-05T14:01:41;100978.40;;;7.90;87.51
56681;BME280;42558;52.388;13.390;2023-01-05T14:04:23;100985.41;;;7.90;87.28
56681;BME280;42558;52.388;13.390;2023-01-05T14:06:59;100990.66;;;7.89;87.47
56681;BME280;42558;52.388;13.390;2023-01-05T14:09:36;100996.79;;;7.90;87.32
56681;BME280;42558;52.388;13.390;2023-01-05T14:18:00;101015.55;;;7.85;87.54
56681;BME280;42558;52.388;13.390;2023-01-05T14:20:45;101027.31;;;7.86;87.06
56681;BME280;42558;52.388;13.390;2023-01-05T14:26:10;101035.08;;;7.82;87.63
56681;BME280;42558;52.388;13.390;2023-01-05T14:28:44;101044.54;;;7.83;87.05
56681;BME280;42558;52.388;13.390;2023-01-05T14:39:22;101074.86;;;7.78;86.13
56681;BME280;42558;52.388;13.390;2023-01-05T14:44:56;101087.18;;;7.75;85.84
56681;BME280;42558;52.388;13.390;2023-01-05T14:47:39;101095.34;;;7.72;86.22
56681;BME280;42558;52.388;13.390;2023-01-05T14:50:37;101101.45;;;7.72;85.98
56681;BME280;42558;52.388;13.390;2023-01-05T15:02:08;101114.86;;;7.58;87.62
56681;BME280;42558;52.388;13.390;2023-01-05T15:04:39;101128.55;;;7.60;87.05
56681;BME280;42558;52.388;13.390;2023-01-05T15:16:28;101156.95;;;7.51;88.87
56681;BME280;42558;52.388;13.390;2023-01-05T15:31:54;101205.84;;;7.27;89.95
56681;BME280;42558;52.388;13.390;2023-01-05T15:37:31;101219.95;;;7.10;90.45